sensor_id;sensor_type;location;lat;lon;timestamp;P1;P2;P0
57798;PMS7003;43626;53.866;30.298;2024-01-25T00:03:09;9;7.8;5
57798;PMS7003;43626;53.866;30.298;2024-01-25T00:07:44;9.4;7;4.6
57798;PMS7003;43626;53.866;30.298;2024-01-25T00:12:51;8.6;7.2;4.8
57798;PMS7003;43626;53.866;30.298;2024-01-25T00:18:01;8.4;7.6;5
57798;PMS7003;43626;53.866;30.298;2024-01-25T00:23:21;9.8;8;4.8
57798;PMS7003;43626;53.866;30.298;2024-01-25T00:28:21;10;7.4;4.2
57798;PMS7003;43626;53.866;30.298;2024-01-25T00:32:59;9;8;4.6
57798;PMS7003;43626;53.866;30.298;2024-01-25T00:38:21;8.2;7;4.8
57798;PMS7003;43626;53.866;30.298;2024-01-25T00:43:21;9.6;8;5
57798;PMS7003;43626;53.866;30.298;2024-01-25T00:48:09;9.4;7.8;4.8
57798;PMS7003;43626;53.866;30.298;2024-01-25T00:53:21;11.4;9.4;5.4
57798;PMS7003;43626;53.866;30.298;2024-01-25T00:57:47;9.8;8.5;5.5
57798;PMS7003;43626;53.866;30.298;2024-01-25T01:02:35;10.6;9.6;5.6
57798;PMS7003;43626;53.866;30.298;2024-01-25T01:07:41;11;9.2;5.4
57798;PMS7003;43626;53.866;30.298;2024-01-25T01:12:45;10.2;9.2;5
57798;PMS7003;43626;53.866;30.298;2024-01-25T01:17:35;12.4;10;6
57798;PMS7003;43626;53.866;30.298;2024-01-25T01:23:01;14.4;11;6.8
57798;PMS7003;43626;53.866;30.298;2024-01-25T01:27:49;13.2;10.6;6.2
57798;PMS7003;43626;53.866;30.298;2024-01-25T01:33:21;14;12;7.4
57798;PMS7003;43626;53.866;30.298;2024-01-25T01:38:09;15;11.8;6.8
57798;PMS7003;43626;53.866;30.298;2024-01-25T01:42:49;14.4;12.6;7.2
57798;PMS7003;43626;53.866;30.298;2024-01-25T01:47:51;15.8;14.2;8
57798;PMS7003;43626;53.866;30.298;2024-01-25T01:53:01;18.4;14.2;8.4
57798;PMS7003;43626;53.866;30.298;2024-01-25T01:58:11;17;13.3;8
57798;PMS7003;43626;53.866;30.298;2024-01-25T02:02:51;16.8;14.4;8.4
57798;PMS7003;43626;53.866;30.298;2024-01-25T02:08:11;15.6;13.8;8.2
57798;PMS7003;43626;53.866;30.298;2024-01-25T02:13:21;18;14;9.2
57798;PMS7003;43626;53.866;30.298;2024-01-25T02:18:11;17.2;13.8;8.4
57798;PMS7003;43626;53.866;30.298;2024-01-25T02:22:35;17.4;14.8;8.2
57798;PMS7003;43626;53.866;30.298;2024-01-25T02:28:11;15.4;13.8;8.2
57798;PMS7003;43626;53.866;30.298;2024-01-25T02:32:35;15;14.2;8.4
57798;PMS7003;43626;53.866;30.298;2024-01-25T02:37:35;17.2;15.2;8.6
57798;PMS7003;43626;53.866;30.298;2024-01-25T02:42:41;17.6;14.6;9
57798;PMS7003;43626;53.866;30.298;2024-01-25T02:47:35;19;15.8;8.6
57798;PMS7003;43626;53.866;30.298;2024-01-25T02:52:41;20.4;15;8.8
57798;PMS7003;43626;53.866;30.298;2024-01-25T02:57:35;16.6;13.4;7.8
57798;PMS7003;43626;53.866;30.298;2024-01-25T03:03:01;15;13.3;8.3
57798;PMS7003;43626;53.866;30.298;2024-01-25T03:08:19;16.2;13.8;8.4
57798;PMS7003;43626;53.866;30.298;2024-01-25T03:13:21;15;13.4;7.2
57798;PMS7003;43626;53.866;30.298;2024-01-25T03:17:49;15.6;13.4;8.2
57798;PMS7003;43626;53.866;30.298;2024-01-25T03:23:01;17;15;9
57798;PMS7003;43626;53.866;30.298;2024-01-25T03:28:21;16.8;14.4;8.8
57798;PMS7003;43626;53.866;30.298;2024-01-25T03:33:11;16.2;14.4;8.8
57798;PMS7003;43626;53.866;30.298;2024-01-25T03:37:51;17.4;14.2;8.8
57798;PMS7003;43626;53.866;30.298;2024-01-25T03:42:53;15;12.8;7.4
57798;PMS7003;43626;53.866;30.298;2024-01-25T03:47:51;19.8;15.8;9.4
57798;PMS7003;43626;53.866;30.298;2024-01-25T03:53:21;19;16.2;8.6
57798;PMS7003;43626;53.866;30.298;2024-01-25T03:57:53;17.2;14.2;8
57798;PMS7003;43626;53.866;30.298;2024-01-25T04:03:21;13.3;11.5;7.5
57798;PMS7003;43626;53.866;30.298;2024-01-25T04:07:53;13.6;11.2;6.8
57798;PMS7003;43626;53.866;30.298;2024-01-25T04:13:09;13.2;10.6;6.8
57798;PMS7003;43626;53.866;30.298;2024-01-25T04:18:21;14.2;10.8;6.6
57798;PMS7003;43626;53.866;30.298;2024-01-25T04:22:35;15.8;13.4;7.4
57798;PMS7003;43626;53.866;30.298;2024-01-25T04:27:36;13.4;11.4;6.6
57798;PMS7003;43626;53.866;30.298;2024-01-25T04:32:39;13.6;11.4;6.6
57798;PMS7003;43626;53.866;30.298;2024-01-25T04:37:37;13.8;12.2;7.2
57798;PMS7003;43626;53.866;30.298;2024-01-25T04:43:21;14.4;11.8;7
57798;PMS7003;43626;53.866;30.298;2024-01-25T04:48:09;13.8;12.8;7.4
57798;PMS7003;43626;53.866;30.298;2024-01-25T04:52:43;16.2;14.2;8.6
57798;PMS7003;43626;53.866;30.298;2024-01-25T04:58:01;14.6;12.2;7.4
57798;PMS7003;43626;53.866;30.298;2024-01-25T05:03:21;13.8;12;7
57798;PMS7003;43626;53.866;30.298;2024-01-25T05:08:11;13.6;11.8;6.8
57798;PMS7003;43626;53.866;30.298;2024-01-25T05:12:45;15.2;13.2;7.8
57798;PMS7003;43626;53.866;30.298;2024-01-25T05:18:01;18;14.4;7.8
57798;PMS7003;43626;53.866;30.298;2024-01-25T05:22:35;18.2;14.8;8.4
57798;PMS7003;43626;53.866;30.298;2024-01-25T05:28:21;16.6;14.2;7.6
57798;PMS7003;43626;53.866;30.298;2024-01-25T05:32:41;18.8;15.8;8.8
57798;PMS7003;43626;53.866;30.298;2024-01-25T05:38:21;21;15.2;9.6
57798;PMS7003;43626;53.866;30.298;2024-01-25T05:42:59;20;17.2;9.4
57798;PMS7003;43626;53.866;30.298;2024-01-25T05:48:09;20.2;16.2;8.8
57798;PMS7003;43626;53.866;30.298;2024-01-25T05:52:35;19.4;15.2;8.4
57798;PMS7003;43626;53.866;30.298;2024-01-25T05:58:01;21;18;9.5
57798;PMS7003;43626;53.866;30.298;2024-01-25T06:02:53;20.8;18;10.4
57798;PMS7003;43626;53.866;30.298;2024-01-25T06:07:41;21.4;18.2;9.2
57798;PMS7003;43626;53.866;30.298;2024-01-25T06:12:35;18.2;15;8
57798;PMS7003;43626;53.866;30.298;2024-01-25T06:17:41;15.8;13.4;7.2
57798;PMS7003;43626;53.866;30.298;2024-01-25T06:23:21;16;13;7.2
57798;PMS7003;43626;53.866;30.298;2024-01-25T06:27:49;15.8;12.6;8.2
57798;PMS7003;43626;53.866;30.298;2024-01-25T06:33:21;16.3;12.8;7.5
57798;PMS7003;43626;53.866;30.298;2024-01-25T06:38:09;19.4;15.2;8
57798;PMS7003;43626;53.866;30.298;2024-01-25T06:43:11;24.6;20.4;11
57798;PMS7003;43626;53.866;30.298;2024-01-25T06:47:35;22;18.4;10.8
57798;PMS7003;43626;53.866;30.298;2024-01-25T06:52:53;17.8;15.8;9.2
57798;PMS7003;43626;53.866;30.298;2024-01-25T06:58:21;18.8;15.4;9.4
57798;PMS7003;43626;53.866;30.298;2024-01-25T07:03:21;17.8;14.8;8.2
57798;PMS7003;43626;53.866;30.298;2024-01-25T07:07:35;21.4;17.8;10.2
57798;PMS7003;43626;53.866;30.298;2024-01-25T07:13:21;16.6;14.2;8.6
57798;PMS7003;43626;53.866;30.298;2024-01-25T07:18:21;18;14.6;9.2
57798;PMS7003;43626;53.866;30.298;2024-01-25T07:23:09;18.8;16.4;9.4
57798;PMS7003;43626;53.866;30.298;2024-01-25T07:28:21;17.4;16.4;9.6
57798;PMS7003;43626;53.866;30.298;2024-01-25T07:32:35;23.5;19;11
57798;PMS7003;43626;53.866;30.298;2024-01-25T07:37:41;25.2;20.4;12.4
57798;PMS7003;43626;53.866;30.298;2024-01-25T07:42:35;25.6;21.8;12.6
57798;PMS7003;43626;53.866;30.298;2024-01-25T07:47:41;26;22.6;12.4
57798;PMS7003;43626;53.866;30.298;2024-01-25T07:52:35;24.2;20.4;11.8
57798;PMS7003;43626;53.866;30.298;2024-01-25T07:58:01;18.2;16.6;9.8
57798;PMS7003;43626;53.866;30.298;2024-01-25T08:02:43;18;15.8;9.8
57798;PMS7003;43626;53.866;30.298;2024-01-25T08:08:21;22;19.2;11.4
57798;PMS7003;43626;53.866;30.298;2024-01-25T08:13:21;23.8;20;12
57798;PMS7003;43626;53.866;30.298;2024-01-25T08:17:36;21.4;17.8;11.2
57798;PMS7003;43626;53.866;30.298;2024-01-25T08:22:49;25.4;21.4;12.2
57798;PMS7003;43626;53.866;30.298;2024-01-25T08:27:53;26.2;22;11.6
57798;PMS7003;43626;53.866;30.298;2024-01-25T08:33:11;19.8;16.3;9.5
57798;PMS7003;43626;53.866;30.298;2024-01-25T08:37:35;15.2;12.8;8
57798;PMS7003;43626;53.866;30.298;2024-01-25T08:43:11;14;11;6.8
57798;PMS7003;43626;53.866;30.298;2024-01-25T08:48:09;16;11.8;7.6
57798;PMS7003;43626;53.866;30.298;2024-01-25T08:53:21;23;17.2;8.8
57798;PMS7003;43626;53.866;30.298;2024-01-25T08:58:09;33.2;23.6;11.2
57798;PMS7003;43626;53.866;30.298;2024-01-25T09:03:19;22.2;17.8;10.8
57798;PMS7003;43626;53.866;30.298;2024-01-25T09:07:35;18.8;15.4;8.8
57798;PMS7003;43626;53.866;30.298;2024-01-25T09:12:35;17;13.8;7.2
57798;PMS7003;43626;53.866;30.298;2024-01-25T09:17:35;18.4;15.4;9.2
57798;PMS7003;43626;53.866;30.298;2024-01-25T09:22:41;15.4;12.2;7.4
57798;PMS7003;43626;53.866;30.298;2024-01-25T09:28:11;13.2;10.4;6.4
57798;PMS7003;43626;53.866;30.298;2024-01-25T09:32:37;12.8;10.5;5.8
57798;PMS7003;43626;53.866;30.298;2024-01-25T09:37:49;10.4;8.8;5.4
57798;PMS7003;43626;53.866;30.298;2024-01-25T09:43:19;5.4;4.6;2.6
57798;PMS7003;43626;53.866;30.298;2024-01-25T09:48:09;5.8;4.4;2.6
57798;PMS7003;43626;53.866;30.298;2024-01-25T09:52:35;5.4;5.2;3.2
57798;PMS7003;43626;53.866;30.298;2024-01-25T09:57:35;5;4.4;2.2
57798;PMS7003;43626;53.866;30.298;2024-01-25T10:02:59;4.8;4.2;2.6
57798;PMS7003;43626;53.866;30.298;2024-01-25T10:08:12;5.2;4.4;2.4
57798;PMS7003;43626;53.866;30.298;2024-01-25T10:12:49;3;2.8;1.8
57798;PMS7003;43626;53.866;30.298;2024-01-25T10:17:53;3.8;3.4;2
57798;PMS7003;43626;53.866;30.298;2024-01-25T10:23:09;3;3;1.6
57798;PMS7003;43626;53.866;30.298;2024-01-25T10:28:19;3.8;2.6;1.4
57798;PMS7003;43626;53.866;30.298;2024-01-25T10:33:15;3.2;2.8;1.6
57798;PMS7003;43626;53.866;30.298;2024-01-25T10:38:11;2.5;2.5;1.5
57798;PMS7003;43626;53.866;30.298;2024-01-25T10:42:59;3.2;2.6;1.8
57798;PMS7003;43626;53.866;30.298;2024-01-25T10:47:35;2;2;1
57798;PMS7003;43626;53.866;30.298;2024-01-25T10:52:35;3.2;2.2;1.6
57798;PMS7003;43626;53.866;30.298;2024-01-25T10:57:42;6;4.6;2.8
57798;PMS7003;43626;53.866;30.298;2024-01-25T11:02:53;5;3.8;2.6
57798;PMS7003;43626;53.866;30.298;2024-01-25T11:07:47;5.4;5.2;3.2
57798;PMS7003;43626;53.866;30.298;2024-01-25T11:13:13;7.2;5.4;3.8
57798;PMS7003;43626;53.866;30.298;2024-01-25T11:18:24;6.2;5.4;3
57798;PMS7003;43626;53.866;30.298;2024-01-25T11:23:21;2.4;2.4;1.6
57798;PMS7003;43626;53.866;30.298;2024-01-25T11:27:49;3.4;2.6;1.6
57798;PMS7003;43626;53.866;30.298;2024-01-25T11:33:03;4.4;3;1.4
57798;PMS7003;43626;53.866;30.298;2024-01-25T11:38:21;6;5.3;2.8
57798;PMS7003;43626;53.866;30.298;2024-01-25T11:43:09;4.8;3.6;2.2
57798;PMS7003;43626;53.866;30.298;2024-01-25T11:47:41;4.8;3.4;1.8
57798;PMS7003;43626;53.866;30.298;2024-01-25T11:53:01;3.6;3.4;2
57798;PMS7003;43626;53.866;30.298;2024-01-25T11:57:51;6.6;5.2;3
57798;PMS7003;43626;53.866;30.298;2024-01-25T12:03:21;14.6;11.6;6.2
57798;PMS7003;43626;53.866;30.298;2024-01-25T12:07:59;18.2;13.6;8.6
57798;PMS7003;43626;53.866;30.298;2024-01-25T12:13:21;18.6;15.6;9.6
57798;PMS7003;43626;53.866;30.298;2024-01-25T12:17:59;9.8;8;4.8
57798;PMS7003;43626;53.866;30.298;2024-01-25T12:23:21;11.6;8.8;4.4
57798;PMS7003;43626;53.866;30.298;2024-01-25T12:27:35;11.8;10.2;5.4
57798;PMS7003;43626;53.866;30.298;2024-01-25T12:32:35;9.8;8.8;5.4
57798;PMS7003;43626;53.866;30.298;2024-01-25T12:37:59;12;10.5;6.5
57798;PMS7003;43626;53.866;30.298;2024-01-25T12:42:41;18.6;15.8;9.2
57798;PMS7003;43626;53.866;30.298;2024-01-25T12:47:35;10.6;9.2;5.6
57798;PMS7003;43626;53.866;30.298;2024-01-25T12:52:35;11.8;10.6;6
57798;PMS7003;43626;53.866;30.298;2024-01-25T12:58:21;9.4;8.6;5.4
57798;PMS7003;43626;53.866;30.298;2024-01-25T13:03:09;7.2;5.6;3.2
57798;PMS7003;43626;53.866;30.298;2024-01-25T13:08:21;6.6;5;2.6
57798;PMS7003;43626;53.866;30.298;2024-01-25T13:13:09;13.6;9;3.8
57798;PMS7003;43626;53.866;30.298;2024-01-25T13:18:11;15.8;11.2;5
57798;PMS7003;43626;53.866;30.298;2024-01-25T13:22:39;12.6;9.6;4.2
57798;PMS7003;43626;53.866;30.298;2024-01-25T13:28:01;28.8;22.8;12.4
57798;PMS7003;43626;53.866;30.298;2024-01-25T13:32:45;35;27.8;14.6
57798;PMS7003;43626;53.866;30.298;2024-01-25T13:38:21;24.8;19;11.3
57798;PMS7003;43626;53.866;30.298;2024-01-25T13:42:59;28.6;24.4;13.8
57798;PMS7003;43626;53.866;30.298;2024-01-25T13:48:21;31.4;25.4;13.8
57798;PMS7003;43626;53.866;30.298;2024-01-25T13:53:09;31;25.2;12.6
57798;PMS7003;43626;53.866;30.298;2024-01-25T13:58:09;39.8;31;17.8
57798;PMS7003;43626;53.866;30.298;2024-01-25T14:02:35;40.2;31.4;18.4
57798;PMS7003;43626;53.866;30.298;2024-01-25T14:08:09;39.4;33.2;20.6
57798;PMS7003;43626;53.866;30.298;2024-01-25T14:12:35;17.4;15.2;10
57798;PMS7003;43626;53.866;30.298;2024-01-25T14:17:43;6;5.4;3.6
57798;PMS7003;43626;53.866;30.298;2024-01-25T14:22:41;5.8;5.4;3
57798;PMS7003;43626;53.866;30.298;2024-01-25T14:27:49;8.4;8;6
57798;PMS7003;43626;53.866;30.298;2024-01-25T14:33:21;50.6;41.2;27
57798;PMS7003;43626;53.866;30.298;2024-01-25T14:37:49;41.5;34.8;23
57798;PMS7003;43626;53.866;30.298;2024-01-25T14:43:21;34.2;30.2;21.4
57798;PMS7003;43626;53.866;30.298;2024-01-25T14:48:09;33;29.6;19.8
57798;PMS7003;43626;53.866;30.298;2024-01-25T14:53:11;40.2;33;19.6
57798;PMS7003;43626;53.866;30.298;2024-01-25T14:57:51;34.4;30;20
57798;PMS7003;43626;53.866;30.298;2024-01-25T15:03:01;25.2;21.8;14.4
57798;PMS7003;43626;53.866;30.298;2024-01-25T15:24:26;40;34;22
57798;PMS7003;43626;53.866;30.298;2024-01-25T15:29:02;34.4;29.6;17.8
57798;PMS7003;43626;53.866;30.298;2024-01-25T15:33:58;28.6;26;15.8
57798;PMS7003;43626;53.866;30.298;2024-01-25T15:38:52;32.3;28;16.8
57798;PMS7003;43626;53.866;30.298;2024-01-25T15:44:10;38.4;31.4;19.4
57798;PMS7003;43626;53.866;30.298;2024-01-25T15:49:08;46.8;35.8;21.4
57798;PMS7003;43626;53.866;30.298;2024-01-25T15:53:52;63;47.4;28
57798;PMS7003;43626;53.866;30.298;2024-01-25T15:59:38;68;51.4;30.8
57798;PMS7003;43626;53.866;30.298;2024-01-25T16:04:26;57.2;42.6;24.8
57798;PMS7003;43626;53.866;30.298;2024-01-25T16:09:26;18.8;14.8;9.4
57798;PMS7003;43626;53.866;30.298;2024-01-25T16:14:08;14;13;8
57798;PMS7003;43626;53.866;30.298;2024-01-25T16:19:18;12.8;11.8;7.8
57798;PMS7003;43626;53.866;30.298;2024-01-25T16:24:28;10.2;8.2;5.4
57798;PMS7003;43626;53.866;30.298;2024-01-25T16:29:18;8.6;7.4;4.4
57798;PMS7003;43626;53.866;30.298;2024-01-25T16:34:26;6.6;5.4;3
57798;PMS7003;43626;53.866;30.298;2024-01-25T16:39:26;8.3;6.8;4
57798;PMS7003;43626;53.866;30.298;2024-01-25T16:44:38;21.6;17.6;9.6
57798;PMS7003;43626;53.866;30.298;2024-01-25T16:49:10;18;15.2;8.2
57798;PMS7003;43626;53.866;30.298;2024-01-25T16:54:28;21.2;17.2;8
57798;PMS7003;43626;53.866;30.298;2024-01-25T16:58:58;19.4;14.6;7.2
57798;PMS7003;43626;53.866;30.298;2024-01-25T17:04:08;8.8;8.4;4.6
57798;PMS7003;43626;53.866;30.298;2024-01-25T17:08:52;5.8;4.6;3
57798;PMS7003;43626;53.866;30.298;2024-01-25T17:14:08;6.2;5.2;3.2
57798;PMS7003;43626;53.866;30.298;2024-01-25T17:19:22;14;11;6.6
57798;PMS7003;43626;53.866;30.298;2024-01-25T17:24:06;31.6;25.4;14.4
57798;PMS7003;43626;53.866;30.298;2024-01-25T17:29:38;23.2;20.2;11.6
57798;PMS7003;43626;53.866;30.298;2024-01-25T17:34:38;18.2;15.8;9.6
57798;PMS7003;43626;53.866;30.298;2024-01-25T17:39:38;21;17.2;11
57798;PMS7003;43626;53.866;30.298;2024-01-25T17:44:06;36.8;28.5;15.3
57798;PMS7003;43626;53.866;30.298;2024-01-25T17:49:38;36.2;28.8;14.6
57798;PMS7003;43626;53.866;30.298;2024-01-25T17:54:34;64;47.6;23.8
57798;PMS7003;43626;53.866;30.298;2024-01-25T17:59:28;76.4;57.8;28.8
57798;PMS7003;43626;53.866;30.298;2024-01-25T18:03:52;84.6;66.8;31.8
57798;PMS7003;43626;53.866;30.298;2024-01-25T18:09:00;69.2;51;27.4
57798;PMS7003;43626;53.866;30.298;2024-01-25T18:14:24;44.8;34.2;20
57798;PMS7003;43626;53.866;30.298;2024-01-25T18:19:40;51.4;38.2;22.4
57798;PMS7003;43626;53.866;30.298;2024-01-25T18:24:18;49.4;37.8;22.6
57798;PMS7003;43626;53.866;30.298;2024-01-25T18:29:40;43.6;33;18.8
57798;PMS7003;43626;53.866;30.298;2024-01-25T18:34:18;36.2;29;17
57798;PMS7003;43626;53.866;30.298;2024-01-25T18:39:28;31.2;25;14.2
57798;PMS7003;43626;53.866;30.298;2024-01-25T18:43:52;30.3;25;13.8
57798;PMS7003;43626;53.866;30.298;2024-01-25T18:49:00;31.8;27;14.4
57798;PMS7003;43626;53.866;30.298;2024-01-25T18:54:00;40.2;31.6;16.8
57798;PMS7003;43626;53.866;30.298;2024-01-25T18:59:08;41.4;33.6;19.4
57798;PMS7003;43626;53.866;30.298;2024-01-25T19:04:00;28.4;24;14.8
57798;PMS7003;43626;53.866;30.298;2024-01-25T19:09:00;21.6;18.6;11.2
57798;PMS7003;43626;53.866;30.298;2024-01-25T19:14:40;27.8;24.4;13.6
57798;PMS7003;43626;53.866;30.298;2024-01-25T19:19:08;32.2;26.2;14.8
57798;PMS7003;43626;53.866;30.298;2024-01-25T19:24:40;28.4;24.8;14.6
57798;PMS7003;43626;53.866;30.298;2024-01-25T19:29:04;35.4;28.6;16.6
57798;PMS7003;43626;53.866;30.298;2024-01-25T19:34:30;41.4;33.2;19.6
57798;PMS7003;43626;53.866;30.298;2024-01-25T19:39:02;29.6;24.2;14.6
57798;PMS7003;43626;53.866;30.298;2024-01-25T19:44:12;32.8;24.5;13.3
57798;PMS7003;43626;53.866;30.298;2024-01-25T19:49:40;26;20.6;11.2
57798;PMS7003;43626;53.866;30.298;2024-01-25T19:54:40;24.6;21;11
57798;PMS7003;43626;53.866;30.298;2024-01-25T19:59:18;22;19.4;10.4
57798;PMS7003;43626;53.866;30.298;2024-01-25T20:04:40;27.4;22.8;13.6
57798;PMS7003;43626;53.866;30.298;2024-01-25T20:09:30;21;18;10.4
57798;PMS7003;43626;53.866;30.298;2024-01-25T20:14:20;17.6;15.6;9.8
57798;PMS7003;43626;53.866;30.298;2024-01-25T20:19:40;16;13.4;8
57798;PMS7003;43626;53.866;30.298;2024-01-25T20:23:52;12.2;10.4;7
57798;PMS7003;43626;53.866;30.298;2024-01-25T20:29:00;11.8;10.2;6.2
57798;PMS7003;43626;53.866;30.298;2024-01-25T20:34:00;11.4;9.4;5.6
57798;PMS7003;43626;53.866;30.298;2024-01-25T20:39:02;10.4;9.2;5.2
57798;PMS7003;43626;53.866;30.298;2024-01-25T20:43:52;9;8.5;4.5
57798;PMS7003;43626;53.866;30.298;2024-01-25T20:49:20;10.6;7.6;3.6
57798;PMS7003;43626;53.866;30.298;2024-01-25T20:54:08;10.4;7.6;4
57798;PMS7003;43626;53.866;30.298;2024-01-25T20:59:40;9.4;8.8;5.6
57798;PMS7003;43626;53.866;30.298;2024-01-25T21:04:28;9.8;8;5.2
57798;PMS7003;43626;53.866;30.298;2024-01-25T21:09:06;10.2;8.6;4.8
57798;PMS7003;43626;53.866;30.298;2024-01-25T21:13:52;11.2;9.6;5.2
57798;PMS7003;43626;53.866;30.298;2024-01-25T21:19:04;11;9.6;5.2
57798;PMS7003;43626;53.866;30.298;2024-01-25T21:24:20;11.4;10.2;5.2
57798;PMS7003;43626;53.866;30.298;2024-01-25T21:29:10;11.4;9.4;4.8
57798;PMS7003;43626;53.866;30.298;2024-01-25T21:34:30;10.6;8;4.6
57798;PMS7003;43626;53.866;30.298;2024-01-25T21:39:28;12.4;9.8;5.8
57798;PMS7003;43626;53.866;30.298;2024-01-25T21:44:40;11.5;9.3;5
57798;PMS7003;43626;53.866;30.298;2024-01-25T21:49:30;11.8;9.8;5.2
57798;PMS7003;43626;53.866;30.298;2024-01-25T21:54:30;12.6;9.6;5.2
57798;PMS7003;43626;53.866;30.298;2024-01-25T21:59:10;13.8;10.6;5.4
57798;PMS7003;43626;53.866;30.298;2024-01-25T22:03:52;14.2;11.2;5.8
57798;PMS7003;43626;53.866;30.298;2024-01-25T22:09:12;14;10.6;5.6
57798;PMS7003;43626;53.866;30.298;2024-01-25T22:14:38;14.2;10.8;6
57798;PMS7003;43626;53.866;30.298;2024-01-25T22:18:52;13.6;11.2;6
57798;PMS7003;43626;53.866;30.298;2024-01-25T22:24:20;17;12.6;7
57798;PMS7003;43626;53.866;30.298;2024-01-25T22:29:08;26.2;18.6;9
57798;PMS7003;43626;53.866;30.298;2024-01-25T22:34:40;22.6;15.4;8.4
57798;PMS7003;43626;53.866;30.298;2024-01-25T22:39:10;19.2;15.2;7.8
57798;PMS7003;43626;53.866;30.298;2024-01-25T22:44:08;29.6;20.6;9
57798;PMS7003;43626;53.866;30.298;2024-01-25T22:49:10;36;25.3;9.5
57798;PMS7003;43626;53.866;30.298;2024-01-25T22:54:18;30.2;21.6;9
57798;PMS7003;43626;53.866;30.298;2024-01-25T22:59:26;22.6;17.2;8.4
57798;PMS7003;43626;53.866;30.298;2024-01-25T23:04:10;21.6;16.8;8.2
57798;PMS7003;43626;53.866;30.298;2024-01-25T23:09:22;20;13.8;7.6
57798;PMS7003;43626;53.866;30.298;2024-01-25T23:14:20;21.2;15.4;8
57798;PMS7003;43626;53.866;30.298;2024-01-25T23:19:40;16;15.2;8
57798;PMS7003;43626;53.866;30.298;2024-01-25T23:24:18;19.4;15;8.6
57798;PMS7003;43626;53.866;30.298;2024-01-25T23:29:40;16.4;13.6;6.8
57798;PMS7003;43626;53.866;30.298;2024-01-25T23:34:10;13.2;11;5.6
57798;PMS7003;43626;53.866;30.298;2024-01-25T23:39:30;17;13.2;7.6
57798;PMS7003;43626;53.866;30.298;2024-01-25T23:43:52;19;16.2;8
57798;PMS7003;43626;53.866;30.298;2024-01-25T23:49:02;22.3;18;9
57798;PMS7003;43626;53.866;30.298;2024-01-25T23:53:52;25.6;18.8;9.2
57798;PMS7003;43626;53.866;30.298;2024-01-25T23:58:52;29.2;19.8;10.6
